Time;durP1;ratioP1;P1;durP2;ratioP2;P2;SDS_P1;SDS_P2;PMS_P1;PMS_P2;Temp;Humidity;BMP_temperature;BMP_pressure;BME280_temperature;BME280_humidity;BME280_pressure;Samples;Min_cycle;Max_cycle;Signal;HPM_P1;HPM_P2
2022/01/31 00:02:15;;;;;;;22.42;3.58;;;;;;;4.39;58.55;100700.28;5074224;28;20419;-73
2022/01/31 00:04:41;;;;;;;26.52;3.95;;;;;;;4.34;58.75;100694.06;5073648;28;20111;-74
2022/01/31 00:07:07;;;;;;;36.20;5.93;;;;;;;4.38;58.03;100704.63;5073598;28;20055;-73
2022/01/31 00:09:32;;;;;;;22.17;4.13;;;;;;;4.36;58.18;100702.84;5069802;28;20045;-73
2022/01/31 00:12:04;;;;;;;23.67;3.70;;;;;;;4.37;58.07;100688.91;5072285;28;20040;-74
2022/01/31 00:14:35;;;;;;;26.70;4.20;;;;;;;4.38;58.00;100688.97;5073241;28;20056;-73
2022/01/31 00:17:00;;;;;;;19.63;3.97;;;;;;;4.38;57.79;100683.72;5067444;28;20098;-73
2022/01/31 00:19:26;;;;;;;26.20;4.88;;;;;;;4.34;58.05;100675.78;5073506;28;20040;-73
2022/01/31 00:21:52;;;;;;;21.05;4.35;;;;;;;4.39;57.50;100669.81;5055718;28;20103;-74
2022/01/31 00:24:17;;;;;;;21.60;4.57;;;;;;;4.35;57.64;100654.06;5073150;28;20032;-73
2022/01/31 00:26:42;;;;;;;21.98;3.90;;;;;;;4.41;57.33;100640.22;5073684;28;20039;-73
2022/01/31 00:29:08;;;;;;;25.55;4.68;;;;;;;4.37;57.57;100653.19;5055921;28;20380;-73
2022/01/31 00:31:33;;;;;;;26.55;3.95;;;;;;;4.34;57.46;100637.47;5073546;28;20032;-73
2022/01/31 00:33:58;;;;;;;17.75;3.72;;;;;;;4.32;57.20;100639.19;5056551;28;20037;-74
2022/01/31 00:36:24;;;;;;;19.45;3.50;;;;;;;4.32;57.31;100646.13;5073521;28;20036;-73
2022/01/31 00:38:49;;;;;;;19.88;4.00;;;;;;;4.28;57.52;100642.56;5071562;28;20098;-73
2022/01/31 00:41:14;;;;;;;18.75;3.28;;;;;;;4.29;57.38;100643.44;5069554;28;20644;-74
2022/01/31 00:43:41;;;;;;;23.75;3.60;;;;;;;4.28;57.65;100650.41;5055491;28;20601;-73
2022/01/31 00:46:12;;;;;;;19.85;3.42;;;;;;;4.35;57.54;100636.63;5054960;28;20071;-74
2022/01/31 00:48:43;;;;;;;22.13;4.15;;;;;;;4.32;57.67;100633.97;5073089;28;20041;-74
2022/01/31 00:51:09;;;;;;;22.20;3.75;;;;;;;4.31;58.11;100611.28;5088813;28;20040;-73
2022/01/31 00:53:35;;;;;;;17.08;4.03;;;;;;;4.24;58.54;100592.81;5069630;28;20025;-73
2022/01/31 00:56:00;;;;;;;22.10;3.63;;;;;;;4.18;57.88;100577.91;5054481;28;20094;-73
2022/01/31 00:58:26;;;;;;;16.42;3.22;;;;;;;4.29;58.20;100559.84;5073107;28;20514;-73
2022/01/31 01:00:51;;;;;;;27.27;4.28;;;;;;;4.21;58.08;100559.69;5055040;28;20044;-73
2022/01/31 01:03:16;;;;;;;19.85;3.88;;;;;;;4.15;58.09;100568.28;5072916;28;20032;-73
2022/01/31 01:05:43;;;;;;;21.38;3.42;;;;;;;4.18;58.53;100563.13;5052914;28;20033;-74
2022/01/31 01:08:08;;;;;;;17.63;3.97;;;;;;;4.20;58.50;100552.72;5054967;28;20031;-74
2022/01/31 01:10:34;;;;;;;19.63;4.25;;;;;;;4.15;58.49;100541.28;5054456;28;20044;-73
2022/01/31 01:12:59;;;;;;;24.92;4.85;;;;;;;4.16;57.55;100528.25;5063236;28;20115;-74
2022/01/31 01:15:25;;;;;;;22.30;3.95;;;;;;;4.21;57.68;100533.56;5054369;28;20077;-73
2022/01/31 01:17:50;;;;;;;17.95;3.60;;;;;;;4.20;58.09;100523.97;5072750;28;20131;-73
2022/01/31 01:20:16;;;;;;;20.65;3.47;;;;;;;4.19;57.75;100530.03;5072652;28;20040;-73
2022/01/31 01:22:44;;;;;;;28.67;4.05;;;;;;;4.19;57.55;100519.59;5054755;28;20036;-74
2022/01/31 01:25:11;;;;;;;18.13;3.78;;;;;;;4.17;58.00;100513.47;5050358;28;20028;-74
2022/01/31 01:27:37;;;;;;;20.05;5.10;;;;;;;4.11;57.85;100497.66;5054646;28;20508;-74
2022/01/31 01:30:05;;;;;;;22.67;4.10;;;;;;;4.11;58.05;100495.06;5053740;28;20510;-74
2022/01/31 01:32:45;;;;;;;20.58;3.92;;;;;;;4.07;58.12;100498.47;5074762;28;20028;-73
2022/01/31 01:35:11;;;;;;;23.58;3.90;;;;;;;4.03;58.65;100501.84;5054143;28;20024;-73
2022/01/31 01:37:36;;;;;;;15.30;3.40;;;;;;;4.04;57.94;100493.19;5072153;28;20040;-73
2022/01/31 01:40:02;;;;;;;22.00;4.40;;;;;;;4.06;58.07;100484.53;5054059;28;20039;-72
2022/01/31 01:42:27;;;;;;;21.38;3.92;;;;;;;4.03;58.38;100475.75;5072227;28;20063;-73
2022/01/31 01:44:53;;;;;;;19.90;4.13;;;;;;;4.05;58.26;100474.91;5071902;28;20635;-73
2022/01/31 01:47:22;;;;;;;24.98;4.53;;;;;;;4.09;58.60;100468.06;5054282;28;20038;-73
2022/01/31 01:49:49;;;;;;;24.35;4.85;;;;;;;4.07;58.35;100454.94;5051192;28;20028;-73
2022/01/31 01:52:19;;;;;;;20.85;3.70;;;;;;;4.13;58.58;100433.28;5037716;28;20043;-73
2022/01/31 01:54:48;;;;;;;21.40;3.92;;;;;;;4.13;58.62;100422.84;5071346;28;20067;-73
2022/01/31 01:57:14;;;;;;;19.90;4.28;;;;;;;4.11;58.46;100421.91;5050144;28;20044;-73
2022/01/31 01:59:42;;;;;;;23.55;4.60;;;;;;;4.08;58.64;100421.88;5053037;28;20519;-73
2022/01/31 02:02:26;;;;;;;21.45;4.40;;;;;;;4.11;58.89;100415.00;5072002;28;20067;-73
2022/01/31 02:04:54;;;;;;;18.98;3.35;;;;;;;4.13;59.05;100423.72;5053274;28;20507;-73
2022/01/31 02:07:33;;;;;;;18.75;3.40;;;;;;;4.11;58.79;100416.69;5051080;28;20028;-73
2022/01/31 02:10:01;;;;;;;24.10;5.75;;;;;;;4.05;59.74;100413.97;5053509;28;20040;-73
2022/01/31 02:12:37;;;;;;;18.20;3.47;;;;;;;4.06;59.27;100402.66;5053696;28;20029;-74
2022/01/31 02:15:03;;;;;;;17.55;3.63;;;;;;;4.05;59.25;100398.31;5053228;28;20060;-74
2022/01/31 02:17:48;;;;;;;26.70;4.90;;;;;;;4.05;59.93;100388.75;5069077;28;20071;-74
2022/01/31 02:20:17;;;;;;;21.33;4.25;;;;;;;4.04;59.89;100383.50;5053608;28;20123;-74
2022/01/31 02:22:43;;;;;;;22.88;3.67;;;;;;;3.98;59.79;100370.31;5053666;28;20120;-74
2022/01/31 02:26:04;;;;;;;23.48;3.85;;;;;;;4.02;59.96;100359.09;5056196;28;20123;-74
2022/01/31 02:28:48;;;;;;;27.67;4.50;;;;;;;4.02;60.21;100348.66;5086881;28;20508;-74
2022/01/31 02:31:14;;;;;;;19.95;3.35;;;;;;;4.04;60.62;100342.59;5055753;28;20044;-73
2022/01/31 02:33:41;;;;;;;22.95;4.50;;;;;;;4.05;60.06;100340.84;5053333;28;20047;-74
2022/01/31 02:36:07;;;;;;;21.15;3.92;;;;;;;3.97;60.32;100337.25;5053010;28;20083;-74
2022/01/31 02:38:33;;;;;;;23.08;4.43;;;;;;;3.92;60.54;100334.53;5052361;28;20071;-74
2022/01/31 02:40:59;;;;;;;32.03;5.68;;;;;;;3.93;60.14;100331.97;5049721;28;20025;-74
2022/01/31 02:43:28;;;;;;;30.73;4.57;;;;;;;3.97;60.52;100326.78;5053354;28;20127;-75
2022/01/31 02:45:53;;;;;;;26.30;4.60;;;;;;;3.92;60.65;100319.75;5052693;28;20024;-75
2022/01/31 02:48:22;;;;;;;26.25;4.35;;;;;;;3.89;60.39;100308.38;5071152;28;20542;-75
2022/01/31 02:50:48;;;;;;;18.55;4.03;;;;;;;3.91;60.85;100299.72;5062216;28;20496;-75
2022/01/31 02:53:24;;;;;;;26.35;4.35;;;;;;;3.94;60.78;100296.28;5052930;28;20039;-75
2022/01/31 02:55:50;;;;;;;27.27;4.28;;;;;;;3.91;61.43;100297.13;5067366;28;20032;-74
2022/01/31 02:58:20;;;;;;;20.83;3.78;;;;;;;3.90;61.32;100287.53;5052744;28;20033;-74
2022/01/31 03:00:49;;;;;;;19.48;4.30;;;;;;;3.95;61.52;100282.38;5053096;28;20039;-75
2022/01/31 03:03:17;;;;;;;25.40;3.83;;;;;;;3.95;61.59;100277.16;5051322;28;20029;-75
2022/01/31 03:05:43;;;;;;;19.67;3.60;;;;;;;3.90;61.73;100266.66;5052735;28;20078;-75
2022/01/31 03:08:09;;;;;;;22.50;3.78;;;;;;;3.85;62.25;100255.25;5052932;28;20032;-75
2022/01/31 03:10:35;;;;;;;22.65;3.90;;;;;;;3.78;61.99;100248.16;5054124;28;20025;-74
2022/01/31 03:13:02;;;;;;;24.88;4.60;;;;;;;3.73;62.27;100235.03;5055230;28;20037;-74
2022/01/31 03:15:31;;;;;;;24.02;4.95;;;;;;;3.74;62.09;100225.47;5060375;28;20087;-75
2022/01/31 03:18:24;;;;;;;19.23;3.60;;;;;;;3.62;62.88;100214.84;5040170;28;20029;-75
2022/01/31 03:20:50;;;;;;;34.78;4.65;;;;;;;3.60;62.59;100216.53;5054179;28;20135;-74
2022/01/31 03:23:15;;;;;;;29.60;4.32;;;;;;;3.53;62.87;100219.88;5040493;28;20036;-74
2022/01/31 03:25:41;;;;;;;22.45;4.82;;;;;;;3.46;62.98;100211.09;5056256;28;20107;-75
2022/01/31 03:28:06;;;;;;;21.67;4.05;;;;;;;3.43;63.13;100203.19;5074740;28;20399;-75
2022/01/31 03:30:31;;;;;;;22.67;4.15;;;;;;;3.42;63.89;100201.44;5074405;28;20488;-74
2022/01/31 03:32:57;;;;;;;25.45;5.22;;;;;;;3.37;63.93;100203.94;5056778;28;20047;-75
2022/01/31 03:35:23;;;;;;;24.83;4.97;;;;;;;3.35;63.95;100194.34;5071689;28;20134;-75
2022/01/31 03:37:49;;;;;;;19.48;4.68;;;;;;;3.34;64.85;100198.69;5056712;28;20067;-75
2022/01/31 03:40:20;;;;;;;20.00;5.22;;;;;;;3.34;64.30;100184.78;5052539;28;20033;-75
2022/01/31 03:42:46;;;;;;;25.52;4.75;;;;;;;3.34;64.76;100188.25;5056561;28;20381;-74
2022/01/31 03:45:11;;;;;;;27.83;3.97;;;;;;;3.38;64.58;100192.69;5074078;28;20039;-75
2022/01/31 03:47:44;;;;;;;17.75;4.13;;;;;;;3.38;63.78;100179.63;5056444;28;20039;-75
2022/01/31 03:50:12;;;;;;;23.08;4.07;;;;;;;3.37;63.86;100164.81;5053236;28;20042;-74
2022/01/31 03:52:38;;;;;;;30.48;5.22;;;;;;;3.34;64.01;100159.56;5056482;28;20036;-75
2022/01/31 03:55:04;;;;;;;27.58;5.18;;;;;;;3.29;64.08;100154.25;5055533;28;20043;-75
2022/01/31 03:57:31;;;;;;;25.88;4.75;;;;;;;3.26;64.14;100154.22;5056276;28;20040;-74
2022/01/31 04:00:18;;;;;;;28.35;4.95;;;;;;;3.23;64.23;100142.84;5065928;28;20080;-74
2022/01/31 04:02:44;;;;;;;25.23;4.07;;;;;;;3.13;65.18;100131.38;5074216;28;20052;-74
2022/01/31 04:05:09;;;;;;;26.02;4.32;;;;;;;3.08;64.76;100102.59;5073176;28;20450;-74
2022/01/31 04:07:35;;;;;;;32.13;5.40;;;;;;;3.09;64.58;100093.06;5056126;28;20036;-74
2022/01/31 04:10:00;;;;;;;21.00;5.10;;;;;;;3.08;64.48;100086.97;5070148;28;20396;-75
2022/01/31 04:12:26;;;;;;;25.98;5.07;;;;;;;3.04;64.40;100074.75;5074152;28;20036;-75
2022/01/31 04:14:51;;;;;;;23.15;4.82;;;;;;;3.01;64.58;100058.16;5073774;28;20040;-75
2022/01/31 04:17:19;;;;;;;26.15;3.95;;;;;;;2.95;64.78;100058.94;5074002;28;20177;-73
2022/01/31 04:19:46;;;;;;;22.63;4.07;;;;;;;2.88;64.97;100062.28;5070965;28;20044;-74
2022/01/31 04:22:15;;;;;;;28.25;4.85;;;;;;;2.82;64.92;100070.00;5073215;28;20493;-75
2022/01/31 04:24:41;;;;;;;20.25;4.40;;;;;;;2.73;65.11;100062.91;5072254;28;20040;-74
2022/01/31 04:27:07;;;;;;;23.13;3.97;;;;;;;2.67;65.06;100057.56;5073600;28;20446;-75
2022/01/31 04:29:37;;;;;;;23.67;3.88;;;;;;;2.61;65.64;100042.69;5073834;28;20045;-74
2022/01/31 04:32:03;;;;;;;23.52;4.60;;;;;;;2.54;65.75;100021.72;5073695;28;20514;-75
2022/01/31 04:34:30;;;;;;;26.73;3.90;;;;;;;2.54;65.83;100019.13;5073772;28;20071;-75
2022/01/31 04:36:56;;;;;;;33.10;5.50;;;;;;;2.58;65.74;100024.41;5072635;28;20055;-75
2022/01/31 04:39:22;;;;;;;22.88;3.97;;;;;;;2.61;66.52;100014.03;5066138;28;20041;-75
2022/01/31 04:41:49;;;;;;;25.10;4.75;;;;;;;2.61;66.60;100008.84;5073459;28;20123;-74
2022/01/31 04:44:15;;;;;;;30.08;4.20;;;;;;;2.63;66.50;100001.94;5073240;28;20047;-75
2022/01/31 04:46:40;;;;;;;28.05;5.60;;;;;;;2.68;66.73;99993.31;5073629;28;20032;-75
2022/01/31 04:49:07;;;;;;;29.83;5.53;;;;;;;2.72;66.49;99984.69;5073603;28;20048;-75
2022/01/31 04:51:32;;;;;;;27.38;4.53;;;;;;;2.72;66.68;99980.34;5070168;28;20539;-74
2022/01/31 04:53:58;;;;;;;30.92;5.05;;;;;;;2.74;67.18;99972.56;5071079;28;20028;-74
2022/01/31 04:56:23;;;;;;;28.15;5.00;;;;;;;2.80;66.92;99959.63;5072941;28;20083;-74
2022/01/31 04:58:48;;;;;;;31.40;6.63;;;;;;;2.76;67.01;99963.06;5073437;28;20029;-74
2022/01/31 05:01:14;;;;;;;32.17;6.25;;;;;;;2.78;67.07;99953.53;5071628;28;20051;-74
2022/01/31 05:03:40;;;;;;;33.70;7.38;;;;;;;2.80;67.00;99939.69;5072879;28;20396;-75
2022/01/31 05:06:08;;;;;;;24.50;6.25;;;;;;;2.86;66.66;99944.13;5069862;28;20040;-73
2022/01/31 05:08:35;;;;;;;23.38;4.85;;;;;;;2.85;66.63;99934.53;5066825;28;20041;-78
2022/01/31 05:11:00;;;;;;;32.55;7.80;;;;;;;2.87;66.88;99937.16;5072018;28;20051;-75
2022/01/31 05:13:25;;;;;;;38.20;9.88;;;;;;;2.93;66.70;99934.63;5073475;28;20044;-75
2022/01/31 05:15:53;;;;;;;37.13;12.13;;;;;;;2.91;66.73;99937.25;5072433;28;20478;-74
2022/01/31 05:18:20;;;;;;;33.20;9.07;;;;;;;2.94;66.92;99934.69;5072749;28;20434;-75
2022/01/31 05:20:45;;;;;;;33.97;7.97;;;;;;;2.93;66.92;99914.66;5063255;28;20427;-75
2022/01/31 05:23:10;;;;;;;28.02;6.93;;;;;;;2.90;67.12;99905.94;5070253;28;20044;-75
2022/01/31 05:25:36;;;;;;;25.20;6.10;;;;;;;2.90;67.25;99901.59;5072065;28;20120;-75
2022/01/31 05:28:02;;;;;;;34.35;6.25;;;;;;;2.86;67.51;99891.97;5072889;28;20041;-75
2022/01/31 05:30:28;;;;;;;33.45;5.78;;;;;;;2.89;67.38;99891.16;5067665;28;20662;-75
2022/01/31 05:32:53;;;;;;;21.52;4.63;;;;;;;2.98;66.94;99881.72;5069862;28;20043;-75
2022/01/31 05:35:19;;;;;;;26.20;5.53;;;;;;;2.93;67.13;99872.94;5065782;28;20039;-75
2022/01/31 05:37:44;;;;;;;29.92;5.28;;;;;;;2.93;67.44;99875.56;5072198;28;20101;-75
2022/01/31 05:40:10;;;;;;;22.15;5.50;;;;;;;3.01;66.87;99871.34;5071757;28;20453;-75
2022/01/31 05:42:35;;;;;;;24.90;4.82;;;;;;;3.03;66.56;99867.00;5072101;28;20025;-75
2022/01/31 05:45:01;;;;;;;25.75;4.63;;;;;;;3.07;66.38;99861.00;5068277;28;20455;-75
2022/01/31 05:47:27;;;;;;;21.10;5.15;;;;;;;3.11;66.63;99856.69;5070780;28;20025;-75
2022/01/31 05:49:52;;;;;;;19.40;4.50;;;;;;;3.02;66.40;99853.97;5072099;28;20500;-75
2022/01/31 05:52:17;;;;;;;24.92;5.38;;;;;;;3.07;66.54;99844.50;5071726;28;20397;-74
2022/01/31 05:54:43;;;;;;;24.88;4.93;;;;;;;3.09;66.09;99837.53;5070088;28;20085;-75
2022/01/31 05:57:09;;;;;;;34.92;5.63;;;;;;;3.00;66.35;99820.06;5069146;28;20175;-75
2022/01/31 05:59:35;;;;;;;35.28;5.55;;;;;;;2.98;66.59;99813.94;5071155;28;20040;-74
2022/01/31 06:02:01;;;;;;;29.17;7.60;;;;;;;3.02;66.81;99812.28;5071891;28;20060;-75
2022/01/31 06:04:30;;;;;;;28.20;4.70;;;;;;;3.01;66.97;99803.56;5071104;28;20115;-75
2022/01/31 06:06:55;;;;;;;25.45;4.50;;;;;;;2.99;67.11;99799.19;5071166;28;20038;-75
2022/01/31 06:09:21;;;;;;;25.95;4.82;;;;;;;3.00;66.70;99801.81;5070832;28;20036;-74
2022/01/31 06:11:49;;;;;;;18.75;5.15;;;;;;;3.05;66.79;99787.09;5061353;28;20048;-74
2022/01/31 06:14:15;;;;;;;23.85;3.78;;;;;;;3.04;67.07;99782.75;5068932;28;20032;-74
2022/01/31 06:16:40;;;;;;;32.45;5.38;;;;;;;3.00;66.72;99769.66;5068906;28;20055;-75
2022/01/31 06:19:05;;;;;;;24.27;4.35;;;;;;;2.92;66.74;99756.53;5064828;28;20040;-74
2022/01/31 06:21:31;;;;;;;26.85;4.55;;;;;;;2.88;66.93;99757.34;5060316;28;20052;-74
2022/01/31 06:23:56;;;;;;;24.27;4.43;;;;;;;2.83;66.76;99751.22;5070011;28;20029;-74
2022/01/31 06:26:22;;;;;;;21.73;4.28;;;;;;;2.79;67.25;99750.28;5051479;28;20068;-75
2022/01/31 06:29:05;;;;;;;22.20;5.63;;;;;;;2.78;67.23;99745.06;5049787;28;20545;-74
2022/01/31 06:31:39;;;;;;;26.65;5.25;;;;;;;2.82;67.05;99747.72;5052873;28;20504;-74
2022/01/31 06:34:05;;;;;;;28.50;4.97;;;;;;;2.93;67.41;99746.97;5070294;28;20063;-75
2022/01/31 06:36:30;;;;;;;29.23;5.80;;;;;;;3.01;66.76;99748.84;5051238;28;20079;-74
2022/01/31 06:38:56;;;;;;;29.73;5.82;;;;;;;3.12;66.80;99745.44;5071322;28;20047;-74
2022/01/31 06:41:23;;;;;;;26.85;4.80;;;;;;;3.18;66.59;99729.91;5071148;28;20107;-75
2022/01/31 06:43:50;;;;;;;24.45;5.00;;;;;;;3.23;66.13;99734.28;5071198;28;20524;-74
2022/01/31 06:46:15;;;;;;;24.88;5.45;;;;;;;3.29;66.01;99726.53;5070670;28;20124;-75
2022/01/31 06:48:40;;;;;;;27.45;4.95;;;;;;;3.25;66.25;99713.47;5071242;28;20078;-75
2022/01/31 06:51:06;;;;;;;26.02;5.07;;;;;;;3.31;66.24;99712.66;5071107;28;20045;-74
2022/01/31 06:53:32;;;;;;;23.77;5.50;;;;;;;3.33;66.10;99696.16;5071134;28;20044;-73
2022/01/31 06:55:57;;;;;;;30.48;6.45;;;;;;;3.38;66.30;99694.47;5070473;28;20044;-74
2022/01/31 06:58:24;;;;;;;24.60;5.13;;;;;;;3.40;65.68;99686.63;5071241;28;20511;-74
2022/01/31 07:00:50;;;;;;;20.80;4.65;;;;;;;3.45;66.08;99667.56;5086059;28;20082;-74
2022/01/31 07:03:15;;;;;;;27.13;6.03;;;;;;;3.45;65.61;99653.63;5052985;28;20495;-74
2022/01/31 07:05:44;;;;;;;26.50;6.18;;;;;;;3.50;66.07;99647.59;5070357;28;20037;-74
2022/01/31 07:08:12;;;;;;;22.48;5.38;;;;;;;3.55;66.05;99644.16;5051866;28;20060;-75
2022/01/31 07:10:38;;;;;;;25.05;4.95;;;;;;;3.61;65.62;99638.97;5070576;28;20062;-75
2022/01/31 07:13:13;;;;;;;23.52;4.65;;;;;;;3.64;65.55;99644.22;5070889;28;20041;-75
2022/01/31 07:15:39;;;;;;;20.80;6.30;;;;;;;3.60;65.63;99626.81;5050284;28;20045;-75
2022/01/31 07:18:04;;;;;;;23.27;5.95;;;;;;;3.62;65.45;99625.09;5052802;28;20457;-73
2022/01/31 07:20:39;;;;;;;27.30;5.97;;;;;;;3.67;65.54;99608.59;5070710;28;20040;-73
2022/01/31 07:23:13;;;;;;;24.98;4.80;;;;;;;3.70;64.77;99607.75;5068165;28;20040;-73
2022/01/31 07:25:38;;;;;;;25.35;5.32;;;;;;;3.72;64.86;99600.78;5060435;28;20064;-73
2022/01/31 07:28:07;;;;;;;20.75;4.63;;;;;;;3.82;64.65;99599.13;5070620;28;20121;-73
2022/01/31 07:30:34;;;;;;;22.02;4.97;;;;;;;3.92;64.77;99596.56;5070826;28;20052;-73
2022/01/31 07:32:59;;;;;;;25.85;5.63;;;;;;;3.94;64.50;99588.75;5070661;28;20507;-73
2022/01/31 07:35:24;;;;;;;23.52;4.50;;;;;;;3.93;64.19;99585.28;5069676;28;20060;-72
2022/01/31 07:37:50;;;;;;;20.30;4.55;;;;;;;3.97;64.10;99578.31;5070399;28;20488;-73
2022/01/31 07:40:15;;;;;;;24.60;7.22;;;;;;;3.98;64.21;99577.44;5066318;28;20064;-73
2022/01/31 07:42:41;;;;;;;21.33;4.97;;;;;;;4.04;63.64;99576.63;5070598;28;20534;-72
2022/01/31 07:45:06;;;;;;;25.08;5.43;;;;;;;3.99;64.06;99578.34;5070287;28;20391;-73
2022/01/31 07:47:32;;;;;;;25.70;5.38;;;;;;;3.97;63.86;99577.47;5070079;28;20086;-72
2022/01/31 07:49:57;;;;;;;23.90;4.57;;;;;;;3.99;64.04;99562.69;5070327;28;20032;-73
2022/01/31 07:52:23;;;;;;;26.83;6.97;;;;;;;3.99;64.06;99567.91;5070545;28;20033;-73
2022/01/31 07:54:48;;;;;;;26.50;5.32;;;;;;;4.05;64.33;99565.31;5070056;28;20048;-73
2022/01/31 07:57:14;;;;;;;23.38;4.85;;;;;;;4.07;63.90;99558.38;5070812;28;20051;-73
2022/01/31 07:59:40;;;;;;;24.20;5.40;;;;;;;4.10;63.90;99553.16;5074183;28;20541;-73
2022/01/31 08:02:05;;;;;;;19.88;5.40;;;;;;;4.13;63.85;99553.16;5074076;28;20044;-73
2022/01/31 08:04:30;;;;;;;35.40;10.50;;;;;;;4.17;64.00;99547.09;5055754;28;20036;-73
2022/01/31 08:06:56;;;;;;;25.05;7.80;;;;;;;4.21;63.67;99535.78;5055985;28;20408;-73
2022/01/31 08:09:21;;;;;;;24.13;5.78;;;;;;;4.31;64.00;99531.47;5069944;28;20385;-72
2022/01/31 08:11:46;;;;;;;20.05;4.38;;;;;;;4.30;63.65;99527.13;5073608;28;20502;-73
2022/01/31 08:14:16;;;;;;;22.17;5.05;;;;;;;4.35;63.66;99521.03;5072689;28;20040;-72
2022/01/31 08:16:42;;;;;;;23.70;5.18;;;;;;;4.41;63.74;99521.91;5072785;28;20086;-73
2022/01/31 08:19:08;;;;;;;23.38;5.25;;;;;;;4.51;63.39;99502.78;5069031;28;20491;-72
2022/01/31 08:21:35;;;;;;;21.05;4.43;;;;;;;4.63;62.82;99507.16;5073706;28;20173;-73
2022/01/31 08:24:00;;;;;;;25.00;4.68;;;;;;;4.59;63.28;99498.44;5072875;28;20477;-73
2022/01/31 08:26:26;;;;;;;21.38;4.80;;;;;;;4.55;63.21;99492.31;5072298;28;20031;-73
2022/01/31 08:28:57;;;;;;;25.90;4.85;;;;;;;4.57;63.51;99500.16;5073574;28;20048;-73
2022/01/31 08:31:29;;;;;;;25.30;5.72;;;;;;;4.58;62.96;99494.06;5072464;28;20119;-73
2022/01/31 08:36:25;;;;;;;20.23;4.50;;;;;;;4.69;62.55;99483.63;5071932;28;20040;-73
2022/01/31 08:38:50;;;;;;;22.15;6.13;;;;;;;4.71;62.70;99476.66;5072186;28;20119;-73
2022/01/31 08:41:17;;;;;;;29.48;5.25;;;;;;;4.68;62.04;99474.03;5051522;28;20167;-71
2022/01/31 08:43:43;;;;;;;21.52;4.35;;;;;;;4.66;61.89;99471.41;5071675;28;20037;-72
2022/01/31 08:46:10;;;;;;;22.08;4.13;;;;;;;4.61;62.56;99465.31;5072262;28;20032;-73
2022/01/31 08:48:36;;;;;;;25.35;7.78;;;;;;;4.66;62.49;99449.66;5054937;28;20025;-72
2022/01/31 08:51:05;;;;;;;34.53;10.35;;;;;;;4.69;62.79;99445.31;5051171;28;20616;-73
2022/01/31 08:53:32;;;;;;;23.02;4.18;;;;;;;4.71;62.47;99442.69;5069403;28;20041;-73
2022/01/31 08:56:04;;;;;;;23.88;5.28;;;;;;;4.73;62.35;99433.97;5063425;28;20044;-73
2022/01/31 08:58:30;;;;;;;18.90;4.15;;;;;;;4.75;62.44;99429.63;5069215;28;20032;-72
2022/01/31 09:01:00;;;;;;;20.73;4.63;;;;;;;4.80;62.25;99427.00;5072069;28;20044;-73
2022/01/31 09:04:01;;;;;;;18.48;4.13;;;;;;;4.84;62.06;99424.38;5068101;28;20514;-73
2022/01/31 09:06:19;;;;;;;;;;;;;;;4.82;61.03;99418.28;5069261;28;20503;-73
2022/01/31 09:08:45;;;;;;;25.58;4.75;;;;;;;4.84;61.51;99413.03;5072403;28;19913;-73
2022/01/31 09:11:10;;;;;;;18.52;4.25;;;;;;;4.95;61.30;99400.84;5068811;28;20058;-72
2022/01/31 09:13:37;;;;;;;30.95;5.82;;;;;;;4.93;61.14;99406.97;5072816;28;20032;-73
2022/01/31 09:16:02;;;;;;;22.25;4.85;;;;;;;4.92;61.42;99398.22;5072323;28;20178;-72
2022/01/31 09:18:28;;;;;;;19.58;4.75;;;;;;;4.81;61.20;99406.06;5072497;28;20555;-73
2022/01/31 09:20:54;;;;;;;18.00;4.15;;;;;;;4.78;61.74;99394.75;5072612;28;20071;-72
2022/01/31 09:23:19;;;;;;;21.20;4.43;;;;;;;4.76;61.77;99396.50;5072354;28;20035;-72
2022/01/31 09:25:46;;;;;;;16.35;4.65;;;;;;;4.80;62.07;99404.34;5071859;28;20028;-72
2022/01/31 09:28:14;;;;;;;18.77;4.43;;;;;;;4.73;63.82;99402.59;5072404;28;20052;-73
2022/01/31 09:30:41;;;;;;;16.77;4.78;;;;;;;4.58;65.66;99408.72;5072317;28;20051;-73
2022/01/31 09:33:06;;;;;;;14.48;3.30;;;;;;;4.52;67.17;99413.06;5071891;28;20044;-72
2022/01/31 09:35:33;;;;;;;15.40;4.38;;;;;;;4.45;67.90;99403.47;5053860;28;20039;-72
2022/01/31 09:38:00;;;;;;;14.93;3.95;;;;;;;4.46;69.02;99402.63;5072302;28;20132;-73
2022/01/31 09:40:25;;;;;;;16.73;3.78;;;;;;;4.48;69.52;99391.31;5054214;28;20032;-72
2022/01/31 09:51:09;;;;;;;15.38;3.78;;;;;;;4.37;72.82;99386.03;5066939;28;20028;-73
2022/01/31 09:53:42;;;;;;;15.50;3.95;;;;;;;4.35;73.21;99379.97;5068675;28;20051;-73
2022/01/31 09:56:10;;;;;;;12.27;3.47;;;;;;;4.42;73.16;99390.41;5071226;28;20033;-72
2022/01/31 09:58:40;;;;;;;15.50;4.13;;;;;;;4.38;73.49;99379.97;5071796;28;20032;-73
2022/01/31 10:01:14;;;;;;;14.10;2.92;;;;;;;4.35;74.26;99387.81;5053394;28;20036;-73
2022/01/31 10:03:47;;;;;;;18.95;3.90;;;;;;;4.35;74.95;99382.59;5067698;28;20040;-72
2022/01/31 10:06:27;;;;;;;14.57;3.70;;;;;;;4.37;75.63;99382.56;5071292;28;20044;-72
2022/01/31 10:09:09;;;;;;;14.30;4.32;;;;;;;4.37;75.50;99380.81;5066998;28;20075;-72
2022/01/31 10:11:50;;;;;;;16.55;4.47;;;;;;;4.24;76.25;99375.59;5067710;28;20068;-73
2022/01/31 10:17:21;;;;;;;15.45;4.85;;;;;;;4.07;77.13;99367.75;5067912;28;20090;-72
2022/01/31 10:19:46;;;;;;;17.80;5.60;;;;;;;4.09;76.80;99366.03;5071073;28;20476;-72
2022/01/31 10:22:14;;;;;;;18.20;4.47;;;;;;;4.11;77.25;99359.03;5071467;28;20115;-72
2022/01/31 10:24:43;;;;;;;14.23;4.20;;;;;;;4.11;77.38;99353.81;5053011;28;20028;-72
2022/01/31 10:27:11;;;;;;;18.30;4.35;;;;;;;4.22;77.04;99352.09;5071058;28;20124;-72
2022/01/31 10:29:37;;;;;;;20.95;4.53;;;;;;;4.21;78.00;99354.69;5071142;28;20078;-72
2022/01/31 10:32:05;;;;;;;13.32;4.05;;;;;;;4.28;76.75;99348.63;5071262;28;20586;-72
2022/01/31 10:34:35;;;;;;;14.73;4.07;;;;;;;4.29;77.05;99340.75;5070865;28;20032;-73
2022/01/31 10:37:07;;;;;;;20.00;4.88;;;;;;;4.40;77.30;99335.53;5071055;28;20128;-73
2022/01/31 10:53:07;;;;;;;22.52;4.85;;;;;;;4.36;77.25;99320.75;5070610;28;20037;-72
2022/01/31 10:55:33;;;;;;;10.90;4.10;;;;;;;4.24;77.44;99319.00;5070734;28;20507;-72
2022/01/31 10:58:04;;;;;;;18.90;4.72;;;;;;;4.26;76.53;99314.66;5070626;28;20071;-73
2022/01/31 11:00:34;;;;;;;15.95;4.68;;;;;;;4.21;77.96;99319.00;5070495;28;20028;-72
2022/01/31 11:03:20;;;;;;;17.88;4.55;;;;;;;4.24;78.70;99319.00;5069368;28;20082;-72
2022/01/31 11:05:49;;;;;;;12.18;3.85;;;;;;;4.28;77.78;99315.53;5051566;28;20036;-77
2022/01/31 11:08:15;;;;;;;17.33;4.38;;;;;;;4.24;78.54;99311.16;5052003;28;20051;-73
2022/01/31 11:10:40;;;;;;;12.50;4.20;;;;;;;4.35;78.33;99306.84;5087351;28;20121;-72
2022/01/31 11:13:06;;;;;;;13.48;3.78;;;;;;;4.43;78.52;99309.44;5070642;28;20514;-73
2022/01/31 11:15:31;;;;;;;13.88;3.75;;;;;;;4.47;78.08;99307.69;5070379;28;20068;-73
2022/01/31 11:17:59;;;;;;;10.23;3.90;;;;;;;4.44;79.18;99305.06;5070920;28;20041;-73
2022/01/31 11:20:25;;;;;;;13.20;4.20;;;;;;;4.35;79.17;99304.22;5070309;28;20043;-73
2022/01/31 11:22:57;;;;;;;8.55;3.28;;;;;;;4.36;78.46;99298.09;5068987;28;20033;-73
2022/01/31 11:25:28;;;;;;;15.85;6.40;;;;;;;4.38;78.98;99293.75;5069795;28;20043;-74
2022/01/31 11:27:58;;;;;;;18.67;9.45;;;;;;;4.47;78.79;99285.03;5070423;28;20036;-72
2022/01/31 11:30:23;;;;;;;17.25;7.60;;;;;;;4.56;78.41;99290.25;5070715;28;20029;-74
2022/01/31 11:32:49;;;;;;;16.88;7.25;;;;;;;4.64;78.60;99282.41;5073846;28;20373;-73
2022/01/31 11:35:14;;;;;;;18.35;8.23;;;;;;;4.71;78.61;99278.88;5074017;28;20048;-74
2022/01/31 11:37:40;;;;;;;9.30;3.67;;;;;;;4.70;78.04;99285.00;5074582;28;20078;-74
2022/01/31 11:40:09;;;;;;;15.45;4.95;;;;;;;4.75;77.91;99292.84;5070239;28;20511;-74
2022/01/31 11:42:35;;;;;;;10.43;3.22;;;;;;;4.84;77.70;99288.44;5073644;28;20036;-73
2022/01/31 11:45:03;;;;;;;8.60;3.60;;;;;;;4.94;76.98;99286.66;5073423;28;20438;-74
2022/01/31 11:47:30;;;;;;;6.82;3.03;;;;;;;4.94;76.47;99280.56;5074243;28;20040;-74
2022/01/31 11:49:58;;;;;;;12.45;4.20;;;;;;;4.95;76.85;99279.69;5074329;28;20037;-74
2022/01/31 11:52:25;;;;;;;8.43;2.90;;;;;;;4.93;76.98;99268.38;5052803;28;20123;-74
2022/01/31 11:54:57;;;;;;;10.23;3.40;;;;;;;4.95;77.17;99262.28;5073753;28;20065;-74
2022/01/31 11:57:27;;;;;;;10.30;3.65;;;;;;;4.95;76.42;99267.50;5073938;28;20063;-74
2022/01/31 11:59:54;;;;;;;11.43;4.22;;;;;;;4.94;76.89;99272.72;5069838;28;20040;-75